• Join FlightAware (Why Join?)
  • Login
  • US Flag 
Rudolph Flight #1: Arrived! 
08:55AM EST


 

Airport Tracker/Info


-or-


 

Live Flight TrackerFlight Track Log ✈ SWA265 ✈ 18-Apr-2013 ✈ KABQ - KLAS

Flight Track Log - Related Links

Times and Time Zones

All times are in EDT time to prevent confusion due to time zone crossing. See the SWA265 flight status page for this flight to view local times or setup timezone preferences in your user account.

Time Position Orientation Groundspeed Altitude Reporting Facility
EDT Latitude Longitude Course Direction KTS MPH feet Rate Location/Type
08:38AM 35.0192 -106.6350 220° Southwest 165 190 5,900  Level Albuquerque Center
08:38AM 34.9989 -106.6561 220° Southwest 178 205 6,900 2,100 Climbing Albuquerque Center
08:39AM 35.0106 -106.7331 281° West 227 261 9,600 2,160 Climbing Albuquerque Center
08:40AM 35.0336 -106.8106 290° West 246 283 11,400 2,700 Climbing Albuquerque Center
08:41AM 35.0675 -106.9247 290° West 319 367 15,200 3,420 Climbing Albuquerque Center
08:42AM 35.0939 -107.0394 286° West 349 402 18,400 3,300 Climbing Albuquerque Center
08:43AM 35.1097 -107.1689 279° West 348 400 22,000 2,820 Climbing Albuquerque Center
08:44AM 35.1189 -107.2819 276° West 375 432 24,100 2,340 Climbing Albuquerque Center
08:45AM 35.1331 -107.4086 278° West 377 434 26,800 2,460 Climbing Albuquerque Center
08:46AM 35.1453 -107.5369 277° West 379 436 29,100 2,160 Climbing Albuquerque Center
08:47AM 35.1614 -107.6794 278° West 379 436 31,200 1,800 Climbing Albuquerque Center
08:48AM 35.1742 -107.8039 277° West 383 441 32,800 1,680 Climbing Albuquerque Center
08:49AM 35.1883 -107.9278 278° West 384 442 34,600 1,740 Climbing Albuquerque Center
08:50AM 35.2019 -108.0711 277° West 381 438 36,400 1,500 Climbing Albuquerque Center
08:51AM 35.2139 -108.1914 277° West 375 432 37,700 780 Climbing Albuquerque Center
08:52AM 35.2264 -108.3125 277° West 374 430 38,000 120 Climbing Albuquerque Center
08:53AM 35.2400 -108.4539 277° West 374 430 38,000  Level Albuquerque Center
08:54AM 35.2528 -108.5758 277° West 375 432 38,000  Level Albuquerque Center
08:55AM 35.2639 -108.7000 276° West 380 437 38,000  Level Albuquerque Center
08:56AM 35.2775 -108.8464 277° West 385 443 38,000  Level Albuquerque Center
08:57AM 35.2900 -108.9708 277° West 385 443 38,000  Level Albuquerque Center
08:58AM 35.3006 -109.0953 276° West 384 442 38,000  Level Albuquerque Center
08:59AM 35.3125 -109.2186 277° West 382 440 38,000  Level Albuquerque Center
09:00AM 35.3256 -109.3636 276° West 382 440 38,000  Level Albuquerque Center
09:02AM 35.3367 -109.4878 276° West 382 440 38,000  Level Albuquerque Center
09:03AM 35.3458 -109.6083 275° West 375 432 38,000  Level Albuquerque Center
09:04AM 35.3592 -109.7553 276° West 386 444 38,000  Level Albuquerque Center
09:05AM 35.3708 -109.8797 277° West 388 447 38,000  Level Albuquerque Center
09:06AM 35.3817 -110.0006 276° West 381 438 38,000  Level Albuquerque Center
09:07AM 35.3917 -110.1450 275° West 379 436 38,000  Level Albuquerque Center
09:08AM 35.3986 -110.2681 274° West 380 437 38,000  Level Albuquerque Center
09:09AM 35.4092 -110.3931 276° West 384 442 38,000  Level Albuquerque Center
09:10AM 35.4217 -110.5406 276° West 387 445 38,000  Level Albuquerque Center
09:11AM 35.4306 -110.6697 275° West 394 453 38,000  Level Albuquerque Center
09:12AM 35.4408 -110.7975 276° West 395 455 38,000  Level Albuquerque Center
09:13AM 35.4536 -110.9461 276° West 393 452 38,000  Level Albuquerque Center
09:14AM 35.4628 -111.0719 275° West 390 449 38,000  Level Albuquerque Center
09:15AM 35.4714 -111.1964 275° West 385 443 38,000  Level Albuquerque Center
09:16AM 35.4825 -111.3411 275° West 383 441 38,000  Level Albuquerque Center
09:17AM 35.4931 -111.4703 276° West 385 443 38,000  Level Albuquerque Center
09:18AM 35.5017 -111.6017 275° West 389 448 38,000  Level Albuquerque Center
09:19AM 35.5106 -111.7297 275° West 383 441 38,000  Level Albuquerque Center
09:20AM 35.5189 -111.8603 275° West 383 441 38,000  Level Albuquerque Center
09:21AM 35.5286 -111.9908 275° West 386 444 38,000 -300 Level Albuquerque Center
09:22AM 35.5372 -112.1236 275° West 390 449 37,400 -780 Descending Albuquerque Center
09:23AM 35.5453 -112.2306 275° West 394 453 36,600 -960 Descending Los Angeles Center
09:24AM 35.5539 -112.3622 275° West 390 449 35,700 -960 Descending Los Angeles Center
09:25AM 35.5617 -112.4983 274° West 399 459 34,700 -900 Descending Los Angeles Center
09:26AM 35.5706 -112.6211 275° West 401 461 33,900 -1,020 Descending Los Angeles Center
09:27AM 35.5811 -112.7842 275° West 400 460 32,700 -1,140 Descending Los Angeles Center
09:28AM 35.5894 -112.9289 274° West 416 479 31,700 -900 Descending Los Angeles Center
09:29AM 35.5964 -113.0564 274° West 414 476 30,900 -1,020 Descending Los Angeles Center
09:30AM 35.6069 -113.2278 274° West 418 481 29,700 -1,080 Descending Los Angeles Center
09:31AM 35.6150 -113.3581 274° West 419 482 28,800 -1,320 Descending Los Angeles Center
09:32AM 35.6219 -113.4969 274° West 412 474 27,100 -2,040 Descending Los Angeles Center
09:33AM 35.6367 -113.6306 278° West 397 457 24,700 -2,460 Descending Los Angeles Center
09:34AM 35.6550 -113.7547 280° West 379 436 22,200 -2,400 Descending Los Angeles Center
09:35AM 35.6722 -113.8750 280° West 364 419 19,900 -2,160 Descending Los Angeles Center
09:36AM 35.6881 -113.9936 279° West 355 409 17,800 -2,340 Descending Los Angeles Center
09:37AM 35.7086 -114.1317 280° West 345 397 15,200 -2,340 Descending Los Angeles Center
09:38AM 35.7217 -114.2369 279° West 341 392 13,100 -1,800 Descending Los Angeles Center
09:38AM 35.7361 -114.3172 283° West 335 386 12,300 -900 Descending Los Angeles Center
09:39AM 35.7369 -114.3458 272° West 330 380 12,200 -300 Descending Los Angeles Center
09:39AM 35.7711 -114.3956 310° West 281 323 12,000 -180 Descending Los Angeles Center
09:40AM 35.7878 -114.4044 337° Northwest 280 322 12,000  Level Los Angeles Center
09:40AM 35.8392 -114.4283 339° North 256 295 12,000  Level Los Angeles Center
09:41AM 35.8797 -114.4464 340° North 254 292 12,000 -540 Level Los Angeles Center
09:42AM 35.9094 -114.4711 326° Northwest 259 298 11,400 -1,140 Descending Los Angeles Center
09:42AM 35.9275 -114.5147 297° West 271 312 10,900 -900 Descending Los Angeles Center
09:43AM 35.9453 -114.5547 299° West 277 319 10,500 -840 Descending Los Angeles Center
09:43AM 35.9550 -114.5817 294° West 275 316 10,100 -1,020 Descending Los Angeles Center
09:44AM 35.9792 -114.6389 298° West 274 315 9,500 -1,200 Descending Los Angeles Center
09:44AM 35.9967 -114.6814 297° West 273 314 8,900 -1,140 Descending Los Angeles Center
09:45AM 36.0108 -114.7136 299° West 269 310 8,500 -840 Descending Los Angeles Center
09:45AM 36.0244 -114.7467 297° West 271 312 8,100 -1,440 Descending Los Angeles Center
09:46AM 36.0442 -114.7956 297° West 268 308 7,100 -1,620 Descending Los Angeles Center
09:46AM 36.0647 -114.8442 298° West 267 307 6,500 -840 Descending Los Angeles Center
09:47AM 36.0733 -114.8789 287° West 249 287 6,300 -780 Descending Los Angeles Center
09:47AM 36.0728 -114.9275 269° West 257 296 5,700 -1,380 Descending Los Angeles Center
09:48AM 36.0728 -114.9644 270° West 237 273 4,900 -1,320 Descending Los Angeles Center
09:48AM 36.0733 -115.0061 271° West 243 280 4,400 -840 Descending Los Angeles Center
09:49AM 36.0728 -115.0336 269° West 192 221 4,100 -1,260 Descending Los Angeles Center
09:49AM 36.0736 -115.0614 272° West 196 226 3,100 -1,080 Descending Los Angeles Center
09:50AM 36.0733 -115.1128 270° West 165 190 2,300 -840 Descending Los Angeles Center
09:52AM 36.0667 -115.1500 270° West  Level FlightAware Approximate